Druid Hills, Georgia
Current Conditions -  °F | °C
As of 3:45 AM on Sunday 23 Nov 2014 (Local Time) from KPDK Reporting Station
Light Rain Light Rain  
Wind Chill: 41°   Ceiling: 1300
Heat Index: 45°   Visibility: 6mi
Dew Point: 39°   Wind: 7mph
Humidity: 81%   Direction: 70°ENE
Pressure: 30.13"   Gusts: NA
Location:  33.7788°N, 84.3361°W
Report Text: KPDK 230845Z 07006KT 6SM -RA OVC013 07/04 A3013 RMK AO2 P0007
Loading
Personal Weather Stations






























Interactive Weather Map New forecast layout! Learn more

10-Day Weather Forecast

Advertisements
Track Severe Weather on mobile